sensor_id;sensor_type;location;lat;lon;timestamp;P1;durP1;ratioP1;P2;durP2;ratioP2
12363;SDS011;6246;50.826;4.712;2023-09-19T00:02:16;1.70;;;1.30;;
12363;SDS011;6246;50.826;4.712;2023-09-19T00:04:42;2.13;;;1.58;;
12363;SDS011;6246;50.826;4.712;2023-09-19T00:07:08;2.83;;;1.83;;
12363;SDS011;6246;50.826;4.712;2023-09-19T00:09:34;4.40;;;2.20;;
12363;SDS011;6246;50.826;4.712;2023-09-19T00:12:05;3.83;;;1.83;;
12363;SDS011;6246;50.826;4.712;2023-09-19T00:14:31;3.50;;;1.90;;
12363;SDS011;6246;50.826;4.712;2023-09-19T00:17:03;3.45;;;1.88;;
12363;SDS011;6246;50.826;4.712;2023-09-19T00:19:36;2.70;;;1.83;;
12363;SDS011;6246;50.826;4.712;2023-09-19T00:22:03;3.38;;;1.88;;
12363;SDS011;6246;50.826;4.712;2023-09-19T00:24:29;2.90;;;1.40;;
12363;SDS011;6246;50.826;4.712;2023-09-19T00:26:56;3.78;;;2.00;;
12363;SDS011;6246;50.826;4.712;2023-09-19T00:29:24;4.80;;;1.52;;
12363;SDS011;6246;50.826;4.712;2023-09-19T00:31:54;3.20;;;1.60;;
12363;SDS011;6246;50.826;4.712;2023-09-19T00:34:21;3.08;;;1.98;;
12363;SDS011;6246;50.826;4.712;2023-09-19T00:36:47;2.33;;;1.63;;
12363;SDS011;6246;50.826;4.712;2023-09-19T00:39:13;3.33;;;1.67;;
12363;SDS011;6246;50.826;4.712;2023-09-19T00:41:39;3.10;;;1.75;;
12363;SDS011;6246;50.826;4.712;2023-09-19T00:44:05;2.95;;;1.88;;
12363;SDS011;6246;50.826;4.712;2023-09-19T00:46:32;2.75;;;1.50;;
12363;SDS011;6246;50.826;4.712;2023-09-19T00:48:58;2.70;;;1.85;;
12363;SDS011;6246;50.826;4.712;2023-09-19T00:51:24;4.20;;;2.03;;
12363;SDS011;6246;50.826;4.712;2023-09-19T00:53:51;2.58;;;1.42;;
12363;SDS011;6246;50.826;4.712;2023-09-19T00:56:17;2.63;;;1.65;;
12363;SDS011;6246;50.826;4.712;2023-09-19T00:58:44;4.30;;;2.15;;
12363;SDS011;6246;50.826;4.712;2023-09-19T01:01:11;4.95;;;1.98;;
12363;SDS011;6246;50.826;4.712;2023-09-19T01:03:39;2.95;;;1.27;;
12363;SDS011;6246;50.826;4.712;2023-09-19T01:06:05;2.45;;;1.42;;
12363;SDS011;6246;50.826;4.712;2023-09-19T01:08:33;1.45;;;1.35;;
12363;SDS011;6246;50.826;4.712;2023-09-19T01:11:01;2.58;;;1.67;;
12363;SDS011;6246;50.826;4.712;2023-09-19T01:16:03;2.13;;;1.48;;
12363;SDS011;6246;50.826;4.712;2023-09-19T01:21:26;4.45;;;1.95;;
12363;SDS011;6246;50.826;4.712;2023-09-19T01:28:52;3.75;;;1.80;;
12363;SDS011;6246;50.826;4.712;2023-09-19T01:31:22;3.30;;;1.77;;
12363;SDS011;6246;50.826;4.712;2023-09-19T01:33:59;2.50;;;1.60;;
12363;SDS011;6246;50.826;4.712;2023-09-19T01:36:31;3.03;;;1.80;;
12363;SDS011;6246;50.826;4.712;2023-09-19T01:39:00;3.55;;;2.00;;
12363;SDS011;6246;50.826;4.712;2023-09-19T01:41:41;2.50;;;1.60;;
12363;SDS011;6246;50.826;4.712;2023-09-19T01:44:12;3.80;;;1.55;;
12363;SDS011;6246;50.826;4.712;2023-09-19T01:46:41;2.83;;;1.80;;
12363;SDS011;6246;50.826;4.712;2023-09-19T01:49:15;1.52;;;1.40;;
12363;SDS011;6246;50.826;4.712;2023-09-19T01:51:56;2.50;;;1.30;;
12363;SDS011;6246;50.826;4.712;2023-09-19T01:54:26;5.43;;;2.15;;
12363;SDS011;6246;50.826;4.712;2023-09-19T01:59:23;2.50;;;1.52;;
12363;SDS011;6246;50.826;4.712;2023-09-19T02:01:52;3.22;;;1.77;;
12363;SDS011;6246;50.826;4.712;2023-09-19T02:04:19;3.58;;;1.77;;
12363;SDS011;6246;50.826;4.712;2023-09-19T02:06:45;4.68;;;1.95;;
12363;SDS011;6246;50.826;4.712;2023-09-19T02:09:12;2.42;;;1.85;;
12363;SDS011;6246;50.826;4.712;2023-09-19T02:11:39;4.60;;;2.00;;
12363;SDS011;6246;50.826;4.712;2023-09-19T02:14:07;2.92;;;1.70;;
12363;SDS011;6246;50.826;4.712;2023-09-19T02:16:33;2.88;;;1.50;;
12363;SDS011;6246;50.826;4.712;2023-09-19T02:18:59;3.88;;;1.77;;
12363;SDS011;6246;50.826;4.712;2023-09-19T02:21:30;4.10;;;1.90;;
12363;SDS011;6246;50.826;4.712;2023-09-19T02:23:56;3.00;;;1.52;;
12363;SDS011;6246;50.826;4.712;2023-09-19T02:26:23;5.25;;;2.28;;
12363;SDS011;6246;50.826;4.712;2023-09-19T02:28:49;3.97;;;1.95;;
12363;SDS011;6246;50.826;4.712;2023-09-19T02:31:16;3.88;;;1.98;;
12363;SDS011;6246;50.826;4.712;2023-09-19T02:33:42;3.97;;;1.67;;
12363;SDS011;6246;50.826;4.712;2023-09-19T02:36:08;4.15;;;1.90;;
12363;SDS011;6246;50.826;4.712;2023-09-19T02:38:35;1.92;;;1.50;;
12363;SDS011;6246;50.826;4.712;2023-09-19T02:41:02;3.20;;;1.80;;
12363;SDS011;6246;50.826;4.712;2023-09-19T02:43:28;2.63;;;2.13;;
12363;SDS011;6246;50.826;4.712;2023-09-19T02:45:54;3.13;;;1.85;;
12363;SDS011;6246;50.826;4.712;2023-09-19T02:48:22;3.92;;;1.90;;
12363;SDS011;6246;50.826;4.712;2023-09-19T02:50:51;3.03;;;1.70;;
12363;SDS011;6246;50.826;4.712;2023-09-19T02:53:17;2.38;;;1.55;;
12363;SDS011;6246;50.826;4.712;2023-09-19T02:55:44;2.33;;;1.60;;
12363;SDS011;6246;50.826;4.712;2023-09-19T02:58:10;3.50;;;1.88;;
12363;SDS011;6246;50.826;4.712;2023-09-19T03:00:36;3.78;;;1.70;;
12363;SDS011;6246;50.826;4.712;2023-09-19T03:03:02;3.13;;;2.05;;
12363;SDS011;6246;50.826;4.712;2023-09-19T03:05:30;3.25;;;1.60;;
12363;SDS011;6246;50.826;4.712;2023-09-19T03:07:57;3.85;;;2.20;;
12363;SDS011;6246;50.826;4.712;2023-09-19T03:10:25;3.20;;;1.90;;
12363;SDS011;6246;50.826;4.712;2023-09-19T03:12:53;4.43;;;1.92;;
12363;SDS011;6246;50.826;4.712;2023-09-19T03:15:19;3.83;;;2.08;;
12363;SDS011;6246;50.826;4.712;2023-09-19T03:17:46;3.13;;;2.30;;
12363;SDS011;6246;50.826;4.712;2023-09-19T03:20:17;2.83;;;1.85;;
12363;SDS011;6246;50.826;4.712;2023-09-19T03:22:43;2.78;;;1.63;;
12363;SDS011;6246;50.826;4.712;2023-09-19T03:25:09;1.98;;;1.80;;
12363;SDS011;6246;50.826;4.712;2023-09-19T03:27:37;2.65;;;1.83;;
12363;SDS011;6246;50.826;4.712;2023-09-19T03:30:03;4.28;;;2.10;;
12363;SDS011;6246;50.826;4.712;2023-09-19T03:32:33;3.83;;;2.05;;
12363;SDS011;6246;50.826;4.712;2023-09-19T03:34:59;3.38;;;1.95;;
12363;SDS011;6246;50.826;4.712;2023-09-19T03:37:25;4.43;;;1.95;;
12363;SDS011;6246;50.826;4.712;2023-09-19T03:39:51;3.00;;;2.00;;
12363;SDS011;6246;50.826;4.712;2023-09-19T03:42:17;2.42;;;1.45;;
12363;SDS011;6246;50.826;4.712;2023-09-19T03:44:50;3.60;;;1.98;;
12363;SDS011;6246;50.826;4.712;2023-09-19T03:47:17;3.60;;;2.20;;
12363;SDS011;6246;50.826;4.712;2023-09-19T03:49:44;3.58;;;2.33;;
12363;SDS011;6246;50.826;4.712;2023-09-19T03:52:10;2.90;;;2.13;;
12363;SDS011;6246;50.826;4.712;2023-09-19T03:54:36;2.50;;;1.67;;
12363;SDS011;6246;50.826;4.712;2023-09-19T03:57:02;3.47;;;2.13;;
12363;SDS011;6246;50.826;4.712;2023-09-19T03:59:29;3.33;;;2.35;;
12363;SDS011;6246;50.826;4.712;2023-09-19T04:01:55;5.43;;;2.33;;
12363;SDS011;6246;50.826;4.712;2023-09-19T04:04:22;6.25;;;2.10;;
12363;SDS011;6246;50.826;4.712;2023-09-19T04:06:50;2.50;;;1.88;;
12363;SDS011;6246;50.826;4.712;2023-09-19T04:09:16;4.25;;;2.13;;
12363;SDS011;6246;50.826;4.712;2023-09-19T04:11:42;2.92;;;1.65;;
12363;SDS011;6246;50.826;4.712;2023-09-19T04:14:08;4.07;;;1.95;;
12363;SDS011;6246;50.826;4.712;2023-09-19T04:16:34;3.78;;;2.38;;
12363;SDS011;6246;50.826;4.712;2023-09-19T04:19:00;3.47;;;1.60;;
12363;SDS011;6246;50.826;4.712;2023-09-19T04:21:27;4.55;;;2.55;;
12363;SDS011;6246;50.826;4.712;2023-09-19T04:23:54;2.25;;;1.45;;
12363;SDS011;6246;50.826;4.712;2023-09-19T04:26:20;3.95;;;2.08;;
12363;SDS011;6246;50.826;4.712;2023-09-19T04:28:46;4.75;;;2.05;;
12363;SDS011;6246;50.826;4.712;2023-09-19T04:31:12;4.25;;;2.10;;
12363;SDS011;6246;50.826;4.712;2023-09-19T04:33:39;3.22;;;2.03;;
12363;SDS011;6246;50.826;4.712;2023-09-19T04:36:05;4.72;;;2.25;;
12363;SDS011;6246;50.826;4.712;2023-09-19T04:38:32;2.92;;;1.98;;
12363;SDS011;6246;50.826;4.712;2023-09-19T04:40:58;4.18;;;2.22;;
12363;SDS011;6246;50.826;4.712;2023-09-19T04:43:25;4.25;;;2.53;;
12363;SDS011;6246;50.826;4.712;2023-09-19T04:45:51;2.78;;;1.75;;
12363;SDS011;6246;50.826;4.712;2023-09-19T04:48:21;3.50;;;1.98;;
12363;SDS011;6246;50.826;4.712;2023-09-19T04:50:48;4.63;;;2.38;;
12363;SDS011;6246;50.826;4.712;2023-09-19T04:53:14;3.88;;;2.25;;
12363;SDS011;6246;50.826;4.712;2023-09-19T04:55:40;2.28;;;1.80;;
12363;SDS011;6246;50.826;4.712;2023-09-19T04:58:06;3.58;;;1.90;;
12363;SDS011;6246;50.826;4.712;2023-09-19T05:00:32;3.25;;;2.05;;
12363;SDS011;6246;50.826;4.712;2023-09-19T05:03:00;4.28;;;2.17;;
12363;SDS011;6246;50.826;4.712;2023-09-19T05:05:29;3.60;;;1.95;;
12363;SDS011;6246;50.826;4.712;2023-09-19T05:07:55;4.03;;;2.30;;
12363;SDS011;6246;50.826;4.712;2023-09-19T05:10:21;4.37;;;2.27;;
12363;SDS011;6246;50.826;4.712;2023-09-19T05:12:47;4.25;;;1.48;;
12363;SDS011;6246;50.826;4.712;2023-09-19T05:15:16;4.07;;;2.13;;
12363;SDS011;6246;50.826;4.712;2023-09-19T05:17:47;4.53;;;2.10;;
12363;SDS011;6246;50.826;4.712;2023-09-19T05:20:14;2.40;;;1.93;;
12363;SDS011;6246;50.826;4.712;2023-09-19T05:22:43;3.83;;;1.98;;
12363;SDS011;6246;50.826;4.712;2023-09-19T05:25:11;2.95;;;1.77;;
12363;SDS011;6246;50.826;4.712;2023-09-19T05:27:43;4.43;;;1.70;;
12363;SDS011;6246;50.826;4.712;2023-09-19T05:30:09;4.53;;;1.83;;
12363;SDS011;6246;50.826;4.712;2023-09-19T05:32:36;3.17;;;1.90;;
12363;SDS011;6246;50.826;4.712;2023-09-19T05:35:02;3.78;;;2.22;;
12363;SDS011;6246;50.826;4.712;2023-09-19T05:37:28;6.07;;;2.13;;
12363;SDS011;6246;50.826;4.712;2023-09-19T05:39:54;3.70;;;1.83;;
12363;SDS011;6246;50.826;4.712;2023-09-19T05:42:20;5.17;;;2.10;;
12363;SDS011;6246;50.826;4.712;2023-09-19T05:44:46;3.67;;;2.00;;
12363;SDS011;6246;50.826;4.712;2023-09-19T05:47:12;2.85;;;1.58;;
12363;SDS011;6246;50.826;4.712;2023-09-19T05:49:38;4.00;;;2.00;;
12363;SDS011;6246;50.826;4.712;2023-09-19T05:52:07;2.70;;;1.60;;
12363;SDS011;6246;50.826;4.712;2023-09-19T05:54:34;2.77;;;2.07;;
12363;SDS011;6246;50.826;4.712;2023-09-19T05:57:00;3.38;;;1.73;;
12363;SDS011;6246;50.826;4.712;2023-09-19T05:59:27;3.88;;;2.00;;
12363;SDS011;6246;50.826;4.712;2023-09-19T06:01:53;3.88;;;1.83;;
12363;SDS011;6246;50.826;4.712;2023-09-19T06:04:19;2.90;;;1.70;;
12363;SDS011;6246;50.826;4.712;2023-09-19T06:06:45;3.30;;;1.93;;
12363;SDS011;6246;50.826;4.712;2023-09-19T06:09:13;4.28;;;2.47;;
12363;SDS011;6246;50.826;4.712;2023-09-19T06:11:41;2.67;;;1.60;;
12363;SDS011;6246;50.826;4.712;2023-09-19T06:14:07;3.80;;;2.07;;
12363;SDS011;6246;50.826;4.712;2023-09-19T06:16:35;3.63;;;2.30;;
12363;SDS011;6246;50.826;4.712;2023-09-19T06:19:03;4.38;;;1.73;;
12363;SDS011;6246;50.826;4.712;2023-09-19T06:21:31;3.17;;;1.90;;
12363;SDS011;6246;50.826;4.712;2023-09-19T06:23:57;3.97;;;2.57;;
12363;SDS011;6246;50.826;4.712;2023-09-19T06:26:24;5.88;;;2.40;;
12363;SDS011;6246;50.826;4.712;2023-09-19T06:28:52;2.72;;;1.75;;
12363;SDS011;6246;50.826;4.712;2023-09-19T06:31:18;3.33;;;1.67;;
12363;SDS011;6246;50.826;4.712;2023-09-19T06:33:46;4.00;;;2.10;;
12363;SDS011;6246;50.826;4.712;2023-09-19T06:36:12;2.08;;;1.63;;
12363;SDS011;6246;50.826;4.712;2023-09-19T06:38:38;4.03;;;2.25;;
12363;SDS011;6246;50.826;4.712;2023-09-19T06:41:04;2.77;;;1.87;;
12363;SDS011;6246;50.826;4.712;2023-09-19T06:43:32;2.50;;;1.58;;
12363;SDS011;6246;50.826;4.712;2023-09-19T06:45:59;4.23;;;1.87;;
12363;SDS011;6246;50.826;4.712;2023-09-19T06:48:25;3.30;;;1.93;;
12363;SDS011;6246;50.826;4.712;2023-09-19T06:50:52;3.37;;;1.83;;
12363;SDS011;6246;50.826;4.712;2023-09-19T06:53:20;5.60;;;1.90;;
12363;SDS011;6246;50.826;4.712;2023-09-19T06:55:48;4.93;;;2.23;;
12363;SDS011;6246;50.826;4.712;2023-09-19T06:58:15;3.43;;;1.80;;
12363;SDS011;6246;50.826;4.712;2023-09-19T07:00:42;3.15;;;1.90;;
12363;SDS011;6246;50.826;4.712;2023-09-19T07:03:08;3.33;;;1.85;;
12363;SDS011;6246;50.826;4.712;2023-09-19T07:05:36;3.88;;;2.00;;
12363;SDS011;6246;50.826;4.712;2023-09-19T07:08:04;4.43;;;1.70;;
12363;SDS011;6246;50.826;4.712;2023-09-19T07:10:31;3.05;;;1.70;;
12363;SDS011;6246;50.826;4.712;2023-09-19T07:13:04;2.70;;;1.77;;
12363;SDS011;6246;50.826;4.712;2023-09-19T07:15:34;3.30;;;1.60;;
12363;SDS011;6246;50.826;4.712;2023-09-19T07:18:06;3.80;;;1.57;;
12363;SDS011;6246;50.826;4.712;2023-09-19T07:20:35;5.37;;;2.17;;
12363;SDS011;6246;50.826;4.712;2023-09-19T07:23:02;4.37;;;1.87;;
12363;SDS011;6246;50.826;4.712;2023-09-19T07:25:28;4.35;;;1.63;;
12363;SDS011;6246;50.826;4.712;2023-09-19T07:27:55;3.08;;;1.60;;
12363;SDS011;6246;50.826;4.712;2023-09-19T07:30:21;3.60;;;1.80;;
12363;SDS011;6246;50.826;4.712;2023-09-19T07:32:47;4.03;;;2.07;;
12363;SDS011;6246;50.826;4.712;2023-09-19T07:35:13;1.98;;;1.40;;
12363;SDS011;6246;50.826;4.712;2023-09-19T07:37:40;4.53;;;2.17;;
12363;SDS011;6246;50.826;4.712;2023-09-19T07:40:06;3.08;;;1.52;;
12363;SDS011;6246;50.826;4.712;2023-09-19T07:42:36;2.22;;;1.40;;
12363;SDS011;6246;50.826;4.712;2023-09-19T07:45:04;2.07;;;1.37;;
12363;SDS011;6246;50.826;4.712;2023-09-19T07:47:30;2.60;;;1.50;;
12363;SDS011;6246;50.826;4.712;2023-09-19T07:49:57;3.20;;;1.52;;
12363;SDS011;6246;50.826;4.712;2023-09-19T07:52:24;3.75;;;1.83;;
12363;SDS011;6246;50.826;4.712;2023-09-19T07:54:50;3.13;;;2.00;;
12363;SDS011;6246;50.826;4.712;2023-09-19T07:57:16;3.85;;;1.60;;
12363;SDS011;6246;50.826;4.712;2023-09-19T07:59:42;4.43;;;2.05;;
12363;SDS011;6246;50.826;4.712;2023-09-19T08:02:08;4.30;;;1.80;;
12363;SDS011;6246;50.826;4.712;2023-09-19T08:04:40;5.03;;;2.00;;
12363;SDS011;6246;50.826;4.712;2023-09-19T08:07:06;2.22;;;1.80;;
12363;SDS011;6246;50.826;4.712;2023-09-19T08:09:36;3.13;;;1.95;;
12363;SDS011;6246;50.826;4.712;2023-09-19T08:12:03;4.05;;;2.00;;
12363;SDS011;6246;50.826;4.712;2023-09-19T08:14:29;4.13;;;1.58;;
12363;SDS011;6246;50.826;4.712;2023-09-19T08:16:56;2.38;;;1.95;;
12363;SDS011;6246;50.826;4.712;2023-09-19T08:19:23;2.53;;;1.58;;
12363;SDS011;6246;50.826;4.712;2023-09-19T08:21:53;2.72;;;1.55;;
12363;SDS011;6246;50.826;4.712;2023-09-19T08:24:19;4.40;;;1.90;;
12363;SDS011;6246;50.826;4.712;2023-09-19T08:26:45;3.47;;;1.40;;
12363;SDS011;6246;50.826;4.712;2023-09-19T08:29:11;2.33;;;1.33;;
12363;SDS011;6246;50.826;4.712;2023-09-19T08:31:37;4.40;;;1.85;;
12363;SDS011;6246;50.826;4.712;2023-09-19T08:34:03;2.67;;;1.80;;
12363;SDS011;6246;50.826;4.712;2023-09-19T08:36:30;4.25;;;2.00;;
12363;SDS011;6246;50.826;4.712;2023-09-19T08:38:56;2.63;;;1.60;;
12363;SDS011;6246;50.826;4.712;2023-09-19T08:41:22;4.30;;;1.80;;
12363;SDS011;6246;50.826;4.712;2023-09-19T08:43:48;3.15;;;1.50;;
12363;SDS011;6246;50.826;4.712;2023-09-19T08:46:16;2.92;;;1.70;;
12363;SDS011;6246;50.826;4.712;2023-09-19T08:48:46;3.65;;;2.22;;
12363;SDS011;6246;50.826;4.712;2023-09-19T08:51:17;3.20;;;1.40;;
12363;SDS011;6246;50.826;4.712;2023-09-19T08:56:47;4.13;;;1.65;;
12363;SDS011;6246;50.826;4.712;2023-09-19T08:59:13;3.25;;;1.63;;
12363;SDS011;6246;50.826;4.712;2023-09-19T09:01:40;2.22;;;1.38;;
12363;SDS011;6246;50.826;4.712;2023-09-19T09:04:10;3.65;;;1.80;;
12363;SDS011;6246;50.826;4.712;2023-09-19T09:06:38;2.90;;;1.70;;
12363;SDS011;6246;50.826;4.712;2023-09-19T09:09:08;3.85;;;1.65;;
12363;SDS011;6246;50.826;4.712;2023-09-19T09:11:35;3.67;;;1.45;;
12363;SDS011;6246;50.826;4.712;2023-09-19T09:14:05;2.75;;;1.73;;
12363;SDS011;6246;50.826;4.712;2023-09-19T09:16:32;3.75;;;2.05;;
12363;SDS011;6246;50.826;4.712;2023-09-19T09:18:58;2.05;;;1.60;;
12363;SDS011;6246;50.826;4.712;2023-09-19T09:21:25;3.03;;;1.80;;
12363;SDS011;6246;50.826;4.712;2023-09-19T09:23:51;3.28;;;1.63;;
12363;SDS011;6246;50.826;4.712;2023-09-19T09:27:03;3.25;;;1.90;;
12363;SDS011;6246;50.826;4.712;2023-09-19T09:29:04;1.95;;;1.20;;
12363;SDS011;6246;50.826;4.712;2023-09-19T09:31:30;3.78;;;1.58;;
12363;SDS011;6246;50.826;4.712;2023-09-19T09:33:56;2.65;;;1.70;;
12363;SDS011;6246;50.826;4.712;2023-09-19T09:36:38;2.67;;;1.65;;
12363;SDS011;6246;50.826;4.712;2023-09-19T09:39:06;1.73;;;1.00;;
12363;SDS011;6246;50.826;4.712;2023-09-19T09:41:49;4.78;;;1.70;;
12363;SDS011;6246;50.826;4.712;2023-09-19T09:44:16;3.53;;;1.48;;
12363;SDS011;6246;50.826;4.712;2023-09-19T09:46:44;3.53;;;1.45;;
12363;SDS011;6246;50.826;4.712;2023-09-19T09:49:39;3.92;;;1.92;;
12363;SDS011;6246;50.826;4.712;2023-09-19T09:52:06;2.85;;;1.63;;
12363;SDS011;6246;50.826;4.712;2023-09-19T09:54:33;4.47;;;1.85;;
12363;SDS011;6246;50.826;4.712;2023-09-19T09:57:02;5.13;;;1.73;;
12363;SDS011;6246;50.826;4.712;2023-09-19T10:05:03;4.13;;;1.73;;
12363;SDS011;6246;50.826;4.712;2023-09-19T10:07:40;2.58;;;1.90;;
12363;SDS011;6246;50.826;4.712;2023-09-19T10:10:12;3.60;;;1.40;;
12363;SDS011;6246;50.826;4.712;2023-09-19T10:12:42;2.88;;;1.27;;
12363;SDS011;6246;50.826;4.712;2023-09-19T10:15:11;2.10;;;1.13;;
12363;SDS011;6246;50.826;4.712;2023-09-19T10:17:44;4.03;;;1.92;;
12363;SDS011;6246;50.826;4.712;2023-09-19T10:20:17;3.42;;;1.90;;
12363;SDS011;6246;50.826;4.712;2023-09-19T10:23:08;2.53;;;1.70;;
12363;SDS011;6246;50.826;4.712;2023-09-19T10:25:38;2.83;;;1.30;;
12363;SDS011;6246;50.826;4.712;2023-09-19T10:28:08;3.67;;;1.60;;
12363;SDS011;6246;50.826;4.712;2023-09-19T10:30:39;3.08;;;1.50;;
12363;SDS011;6246;50.826;4.712;2023-09-19T10:33:09;3.70;;;1.67;;
12363;SDS011;6246;50.826;4.712;2023-09-19T10:35:37;2.88;;;1.50;;
12363;SDS011;6246;50.826;4.712;2023-09-19T10:38:05;4.38;;;1.52;;
12363;SDS011;6246;50.826;4.712;2023-09-19T10:40:34;3.25;;;1.48;;
12363;SDS011;6246;50.826;4.712;2023-09-19T10:43:04;2.25;;;1.75;;
12363;SDS011;6246;50.826;4.712;2023-09-19T10:45:31;3.17;;;1.65;;
12363;SDS011;6246;50.826;4.712;2023-09-19T10:48:01;2.63;;;1.48;;
12363;SDS011;6246;50.826;4.712;2023-09-19T10:50:32;3.45;;;1.90;;
12363;SDS011;6246;50.826;4.712;2023-09-19T10:53:00;3.88;;;1.70;;
12363;SDS011;6246;50.826;4.712;2023-09-19T10:55:29;2.08;;;1.30;;
12363;SDS011;6246;50.826;4.712;2023-09-19T10:57:56;2.33;;;1.30;;
12363;SDS011;6246;50.826;4.712;2023-09-19T11:00:56;2.88;;;1.67;;
12363;SDS011;6246;50.826;4.712;2023-09-19T11:03:23;2.55;;;1.35;;
12363;SDS011;6246;50.826;4.712;2023-09-19T11:06:05;1.77;;;1.55;;
12363;SDS011;6246;50.826;4.712;2023-09-19T11:22:26;3.78;;;1.67;;
12363;SDS011;6246;50.826;4.712;2023-09-19T11:30:46;4.03;;;1.70;;
12363;SDS011;6246;50.826;4.712;2023-09-19T11:33:17;1.90;;;1.30;;
12363;SDS011;6246;50.826;4.712;2023-09-19T11:36:08;1.60;;;1.15;;
12363;SDS011;6246;50.826;4.712;2023-09-19T11:44:31;1.85;;;1.17;;
12363;SDS011;6246;50.826;4.712;2023-09-19T11:49:25;2.25;;;1.70;;
12363;SDS011;6246;50.826;4.712;2023-09-19T11:51:54;2.30;;;1.50;;
12363;SDS011;6246;50.826;4.712;2023-09-19T11:54:21;2.75;;;1.50;;
12363;SDS011;6246;50.826;4.712;2023-09-19T11:56:53;2.22;;;1.38;;
12363;SDS011;6246;50.826;4.712;2023-09-19T12:01:51;2.78;;;1.15;;
12363;SDS011;6246;50.826;4.712;2023-09-19T12:04:33;2.58;;;1.35;;
12363;SDS011;6246;50.826;4.712;2023-09-19T12:07:02;1.50;;;1.23;;
12363;SDS011;6246;50.826;4.712;2023-09-19T12:09:29;1.58;;;1.08;;
12363;SDS011;6246;50.826;4.712;2023-09-19T12:11:55;1.90;;;1.40;;
12363;SDS011;6246;50.826;4.712;2023-09-19T12:14:23;1.45;;;1.00;;
12363;SDS011;6246;50.826;4.712;2023-09-19T12:16:57;2.90;;;1.67;;
12363;SDS011;6246;50.826;4.712;2023-09-19T12:19:25;2.92;;;1.38;;
12363;SDS011;6246;50.826;4.712;2023-09-19T12:21:55;2.05;;;1.33;;
12363;SDS011;6246;50.826;4.712;2023-09-19T12:24:23;2.97;;;1.15;;
12363;SDS011;6246;50.826;4.712;2023-09-19T12:26:51;2.20;;;1.38;;
12363;SDS011;6246;50.826;4.712;2023-09-19T12:29:18;2.28;;;1.20;;
12363;SDS011;6246;50.826;4.712;2023-09-19T12:31:48;2.30;;;1.38;;
12363;SDS011;6246;50.826;4.712;2023-09-19T12:34:28;1.45;;;0.90;;
12363;SDS011;6246;50.826;4.712;2023-09-19T12:39:40;1.73;;;1.15;;
12363;SDS011;6246;50.826;4.712;2023-09-19T12:42:07;1.38;;;1.25;;
12363;SDS011;6246;50.826;4.712;2023-09-19T12:44:34;0.82;;;0.80;;
12363;SDS011;6246;50.826;4.712;2023-09-19T12:47:07;2.05;;;1.10;;
12363;SDS011;6246;50.826;4.712;2023-09-19T12:49:34;1.80;;;1.17;;
12363;SDS011;6246;50.826;4.712;2023-09-19T12:52:00;1.17;;;0.90;;
12363;SDS011;6246;50.826;4.712;2023-09-19T12:54:37;1.98;;;0.93;;
12363;SDS011;6246;50.826;4.712;2023-09-19T12:57:04;1.95;;;0.93;;
12363;SDS011;6246;50.826;4.712;2023-09-19T12:59:30;1.88;;;1.00;;
12363;SDS011;6246;50.826;4.712;2023-09-19T13:02:02;1.50;;;1.25;;
12363;SDS011;6246;50.826;4.712;2023-09-19T13:04:29;2.35;;;1.02;;
12363;SDS011;6246;50.826;4.712;2023-09-19T13:06:58;1.83;;;1.10;;
12363;SDS011;6246;50.826;4.712;2023-09-19T13:09:26;1.95;;;0.98;;
12363;SDS011;6246;50.826;4.712;2023-09-19T13:12:34;3.53;;;1.25;;
12363;SDS011;6246;50.826;4.712;2023-09-19T13:15:06;1.27;;;1.10;;
12363;SDS011;6246;50.826;4.712;2023-09-19T13:17:45;1.73;;;1.20;;
12363;SDS011;6246;50.826;4.712;2023-09-19T13:22:54;2.15;;;1.10;;
12363;SDS011;6246;50.826;4.712;2023-09-19T13:25:25;2.00;;;1.00;;
12363;SDS011;6246;50.826;4.712;2023-09-19T13:27:55;2.78;;;1.13;;
12363;SDS011;6246;50.826;4.712;2023-09-19T13:30:25;1.70;;;1.00;;
12363;SDS011;6246;50.826;4.712;2023-09-19T13:33:04;0.93;;;0.70;;
12363;SDS011;6246;50.826;4.712;2023-09-19T13:35:31;1.13;;;0.75;;
12363;SDS011;6246;50.826;4.712;2023-09-19T13:37:57;1.90;;;1.17;;
12363;SDS011;6246;50.826;4.712;2023-09-19T13:40:24;2.65;;;1.10;;
12363;SDS011;6246;50.826;4.712;2023-09-19T13:42:55;2.25;;;0.80;;
12363;SDS011;6246;50.826;4.712;2023-09-19T13:45:21;2.58;;;1.20;;
12363;SDS011;6246;50.826;4.712;2023-09-19T13:47:49;1.65;;;1.05;;
12363;SDS011;6246;50.826;4.712;2023-09-19T13:50:16;1.05;;;0.85;;
12363;SDS011;6246;50.826;4.712;2023-09-19T13:52:48;2.63;;;0.95;;
12363;SDS011;6246;50.826;4.712;2023-09-19T13:55:16;1.65;;;0.98;;
12363;SDS011;6246;50.826;4.712;2023-09-19T13:57:45;1.35;;;1.08;;
12363;SDS011;6246;50.826;4.712;2023-09-19T14:00:12;2.03;;;1.02;;
12363;SDS011;6246;50.826;4.712;2023-09-19T14:02:41;3.72;;;1.20;;
12363;SDS011;6246;50.826;4.712;2023-09-19T14:05:09;1.95;;;1.15;;
12363;SDS011;6246;50.826;4.712;2023-09-19T14:07:37;1.25;;;0.70;;
12363;SDS011;6246;50.826;4.712;2023-09-19T14:10:03;1.65;;;0.88;;
12363;SDS011;6246;50.826;4.712;2023-09-19T14:12:32;0.85;;;0.80;;
12363;SDS011;6246;50.826;4.712;2023-09-19T14:14:59;1.65;;;0.93;;
12363;SDS011;6246;50.826;4.712;2023-09-19T14:17:26;2.42;;;0.95;;
12363;SDS011;6246;50.826;4.712;2023-09-19T14:19:53;2.33;;;0.88;;
12363;SDS011;6246;50.826;4.712;2023-09-19T14:22:19;1.23;;;0.80;;
12363;SDS011;6246;50.826;4.712;2023-09-19T14:24:45;1.35;;;0.70;;
12363;SDS011;6246;50.826;4.712;2023-09-19T14:27:11;1.05;;;0.73;;
12363;SDS011;6246;50.826;4.712;2023-09-19T14:29:37;1.65;;;0.70;;
12363;SDS011;6246;50.826;4.712;2023-09-19T14:32:03;1.90;;;1.10;;
12363;SDS011;6246;50.826;4.712;2023-09-19T14:34:30;2.47;;;0.82;;
12363;SDS011;6246;50.826;4.712;2023-09-19T14:36:56;1.77;;;1.02;;
12363;SDS011;6246;50.826;4.712;2023-09-19T14:39:22;1.08;;;0.75;;
12363;SDS011;6246;50.826;4.712;2023-09-19T14:41:48;1.40;;;0.70;;
12363;SDS011;6246;50.826;4.712;2023-09-19T14:44:14;1.10;;;0.95;;
12363;SDS011;6246;50.826;4.712;2023-09-19T14:46:43;2.03;;;1.00;;
12363;SDS011;6246;50.826;4.712;2023-09-19T14:49:10;2.40;;;1.13;;
12363;SDS011;6246;50.826;4.712;2023-09-19T14:51:37;2.20;;;1.13;;
12363;SDS011;6246;50.826;4.712;2023-09-19T14:54:05;1.23;;;0.93;;
12363;SDS011;6246;50.826;4.712;2023-09-19T14:56:32;1.02;;;0.80;;
12363;SDS011;6246;50.826;4.712;2023-09-19T14:58:59;1.40;;;1.08;;
12363;SDS011;6246;50.826;4.712;2023-09-19T15:01:25;0.88;;;0.80;;
12363;SDS011;6246;50.826;4.712;2023-09-19T15:03:51;1.27;;;0.80;;
12363;SDS011;6246;50.826;4.712;2023-09-19T15:06:19;1.58;;;1.00;;
12363;SDS011;6246;50.826;4.712;2023-09-19T15:08:45;1.10;;;0.77;;
12363;SDS011;6246;50.826;4.712;2023-09-19T15:11:15;1.20;;;0.90;;
12363;SDS011;6246;50.826;4.712;2023-09-19T15:13:45;1.38;;;0.90;;
12363;SDS011;6246;50.826;4.712;2023-09-19T15:16:11;2.15;;;1.20;;
12363;SDS011;6246;50.826;4.712;2023-09-19T15:18:39;1.58;;;0.90;;
12363;SDS011;6246;50.826;4.712;2023-09-19T15:21:07;0.88;;;0.57;;
12363;SDS011;6246;50.826;4.712;2023-09-19T15:23:34;1.15;;;0.90;;
12363;SDS011;6246;50.826;4.712;2023-09-19T15:26:01;1.75;;;1.02;;
12363;SDS011;6246;50.826;4.712;2023-09-19T15:28:28;1.60;;;0.80;;
12363;SDS011;6246;50.826;4.712;2023-09-19T15:31:08;2.63;;;0.73;;
12363;SDS011;6246;50.826;4.712;2023-09-19T15:33:34;1.17;;;0.90;;
12363;SDS011;6246;50.826;4.712;2023-09-19T15:36:07;3.88;;;1.13;;
12363;SDS011;6246;50.826;4.712;2023-09-19T15:41:19;1.27;;;0.88;;
12363;SDS011;6246;50.826;4.712;2023-09-19T15:43:46;1.58;;;1.10;;
12363;SDS011;6246;50.826;4.712;2023-09-19T15:46:12;1.10;;;0.60;;
12363;SDS011;6246;50.826;4.712;2023-09-19T15:48:38;2.30;;;0.98;;
12363;SDS011;6246;50.826;4.712;2023-09-19T15:51:05;2.20;;;1.15;;
12363;SDS011;6246;50.826;4.712;2023-09-19T15:56:10;1.15;;;1.08;;
12363;SDS011;6246;50.826;4.712;2023-09-19T15:58:37;2.05;;;0.90;;
12363;SDS011;6246;50.826;4.712;2023-09-19T16:01:08;1.40;;;0.80;;
12363;SDS011;6246;50.826;4.712;2023-09-19T16:03:37;1.98;;;0.80;;
12363;SDS011;6246;50.826;4.712;2023-09-19T16:06:13;0.85;;;0.68;;
12363;SDS011;6246;50.826;4.712;2023-09-19T16:08:42;1.40;;;0.85;;
12363;SDS011;6246;50.826;4.712;2023-09-19T16:11:08;1.63;;;1.05;;